createdAt,value
2023-06-25T10:51:38.680Z,9.05
2023-06-25T10:54:09.244Z,7.35
2023-06-25T10:56:39.279Z,6.50
2023-06-25T10:59:06.565Z,7.32
2023-06-25T11:01:36.095Z,6.50
2023-06-25T11:04:13.705Z,6.53
2023-06-25T11:06:41.153Z,6.15
2023-06-25T11:09:08.551Z,6.63
2023-06-25T11:11:35.979Z,6.57
2023-06-25T11:14:03.267Z,6.40
2023-06-25T11:16:30.693Z,5.68
2023-06-25T11:18:58.293Z,6.43
2023-06-25T11:21:25.792Z,6.30
2023-06-25T11:23:53.211Z,5.57
2023-06-25T11:26:20.539Z,6.25
2023-06-25T11:28:49.706Z,6.32
2023-06-25T11:31:17.102Z,5.88
2023-06-25T11:33:57.362Z,5.45
2023-06-25T11:36:24.995Z,5.25
2023-06-25T11:38:54.775Z,6.07
2023-06-25T11:41:27.593Z,5.97
2023-06-25T11:43:54.955Z,4.85
2023-06-25T11:46:22.344Z,5.07
2023-06-25T11:48:51.935Z,4.68
2023-06-25T11:51:19.362Z,6.10
2023-06-25T11:53:46.743Z,6.47
2023-06-25T11:56:16.555Z,5.55
2023-06-25T11:58:43.916Z,6.00
2023-06-25T12:01:12.040Z,7.07
2023-06-25T12:03:41.978Z,6.60
2023-06-25T12:06:11.729Z,6.30
2023-06-25T12:08:41.714Z,5.97
2023-06-25T12:11:14.512Z,5.85
2023-06-25T12:13:42.257Z,6.88
2023-06-25T12:16:09.553Z,6.15
2023-06-25T12:18:36.854Z,6.47
2023-06-25T12:21:06.637Z,6.68
2023-06-25T12:23:34.009Z,6.38
2023-06-25T12:26:01.281Z,6.63
2023-06-25T12:28:28.674Z,6.50
2023-06-25T12:30:56.612Z,6.30
2023-06-25T12:33:24.005Z,6.57
2023-06-25T12:35:53.836Z,6.25
2023-06-25T12:38:23.918Z,7.13
2023-06-25T12:40:57.949Z,6.32
2023-06-25T12:43:25.536Z,6.43
2023-06-25T12:45:52.828Z,6.60
2023-06-25T12:48:22.685Z,6.15
2023-06-25T12:50:52.629Z,6.40
2023-06-25T12:58:38.789Z,5.22
2023-06-25T13:01:08.316Z,4.97
2023-06-25T13:03:36.147Z,4.10
2023-06-25T13:06:03.861Z,3.45
2023-06-25T13:08:31.136Z,4.20
2023-06-25T13:11:03.673Z,3.50
2023-06-25T13:13:31.123Z,4.20
2023-06-25T13:15:58.661Z,3.42
2023-06-25T13:18:26.095Z,4.43
2023-06-25T13:20:53.408Z,4.85
2023-06-25T13:23:20.745Z,4.40
2023-06-25T13:25:50.444Z,4.05
2023-06-25T13:28:17.767Z,4.13
2023-06-25T13:30:46.835Z,4.15
2023-06-25T13:33:14.230Z,3.38
2023-06-25T13:35:41.561Z,4.25
2023-06-25T13:38:11.288Z,4.47
2023-06-25T13:40:38.568Z,3.50
2023-06-25T13:43:08.373Z,4.40
2023-06-25T13:45:35.854Z,4.18
2023-06-25T13:48:05.581Z,4.25
2023-06-25T13:50:35.660Z,3.78
2023-06-25T13:53:02.929Z,3.80
2023-06-25T13:55:30.300Z,3.55
2023-06-25T13:57:57.799Z,3.42
2023-06-25T14:00:25.263Z,3.30
2023-06-25T14:03:06.785Z,3.47
2023-06-25T14:05:41.394Z,3.75
2023-06-25T14:08:08.736Z,3.45
2023-06-25T14:10:38.394Z,3.25
2023-06-25T14:13:05.797Z,3.35
2023-06-25T14:15:33.184Z,4.15
2023-06-25T14:18:00.617Z,4.43
2023-06-25T14:20:27.979Z,3.60
2023-06-25T14:22:55.276Z,3.72
2023-06-25T14:25:22.578Z,3.80
2023-06-25T14:27:49.895Z,3.35
2023-06-25T14:30:19.701Z,3.78
2023-06-25T14:32:49.330Z,3.42
2023-06-25T14:35:18.978Z,4.45
2023-06-25T14:37:46.999Z,3.53
2023-06-25T14:40:14.391Z,3.50
2023-06-25T14:42:41.739Z,4.05
2023-06-25T14:45:09.786Z,3.60
2023-06-25T14:47:37.766Z,4.07
2023-06-25T14:50:05.607Z,3.55
2023-06-25T14:52:32.992Z,3.88
2023-06-25T14:55:00.325Z,4.18
2023-06-25T14:57:27.657Z,3.40
2023-06-25T14:59:59.283Z,3.58
2023-06-25T15:02:26.722Z,3.88
2023-06-25T15:04:54.388Z,4.43
2023-06-25T15:07:21.796Z,3.60
2023-06-25T15:09:49.136Z,3.45
2023-06-25T15:12:16.493Z,3.50
2023-06-25T15:14:45.551Z,3.53
2023-06-25T15:17:13.509Z,3.40
2023-06-25T15:19:40.880Z,3.25
2023-06-25T15:22:08.344Z,3.35
2023-06-25T15:24:35.813Z,3.60
2023-06-25T15:27:03.454Z,4.00
2023-06-25T15:29:31.063Z,3.42
2023-06-25T15:32:01.066Z,3.28
2023-06-25T15:34:28.654Z,3.83
2023-06-25T15:36:56.057Z,3.20
2023-06-25T15:39:23.632Z,3.08
2023-06-25T15:41:51.172Z,4.00
2023-06-25T15:44:18.454Z,3.42
2023-06-25T15:46:48.016Z,3.95
2023-06-25T15:49:15.518Z,3.67
2023-06-25T15:51:43.890Z,4.28
2023-06-25T15:56:49.003Z,3.35
2023-06-25T15:59:16.383Z,4.03
2023-06-25T16:01:43.827Z,3.22
2023-06-25T16:04:11.628Z,3.17
2023-06-25T16:06:38.943Z,4.10
2023-06-25T16:09:06.306Z,3.40
2023-06-25T16:11:36.949Z,3.60
2023-06-25T16:14:06.756Z,3.00
2023-06-25T16:16:34.584Z,3.90
2023-06-25T16:19:21.003Z,3.20
2023-06-25T16:21:49.105Z,3.90
2023-06-25T16:24:17.346Z,4.28
2023-06-25T16:26:44.653Z,3.20
2023-06-25T16:29:12.170Z,2.95
2023-06-25T16:31:39.525Z,3.50
2023-06-25T16:34:06.879Z,3.42
2023-06-25T16:36:34.213Z,4.05
2023-06-25T16:39:01.834Z,3.42
2023-06-25T16:41:31.187Z,3.30
2023-06-25T16:44:02.570Z,3.75
2023-06-25T16:46:32.423Z,3.47
2023-06-25T16:48:59.821Z,3.65
2023-06-25T16:51:29.322Z,3.17
2023-06-25T16:54:00.940Z,2.90
2023-06-25T16:56:34.834Z,3.70
2023-06-25T16:59:04.622Z,3.45
2023-06-25T17:01:32.117Z,3.55
2023-06-25T17:03:59.561Z,3.60
2023-06-25T17:06:27.002Z,3.65
2023-06-25T17:08:54.343Z,3.30
2023-06-25T17:11:22.626Z,3.15
2023-06-25T17:13:50.196Z,3.30
2023-06-25T17:16:17.513Z,3.47
2023-06-25T17:18:47.066Z,3.42
2023-06-25T17:21:14.422Z,2.90
2023-06-25T17:23:41.694Z,3.40
2023-06-25T17:26:11.695Z,3.35
2023-06-25T17:28:39.809Z,3.33
2023-06-25T17:31:07.089Z,3.13
2023-06-25T17:33:36.921Z,3.40
2023-06-25T17:36:04.564Z,3.13
2023-06-25T17:38:31.861Z,3.40
2023-06-25T17:40:59.134Z,3.15
2023-06-25T17:43:26.519Z,3.50
2023-06-25T17:45:56.659Z,3.53
2023-06-25T17:48:24.049Z,3.78
2023-06-25T17:50:51.545Z,3.70
2023-06-25T17:53:20.235Z,3.60
2023-06-25T17:55:47.899Z,2.90
2023-06-25T17:58:15.434Z,3.63
2023-06-25T18:00:43.812Z,2.97
2023-06-25T18:03:13.594Z,3.80
2023-06-25T18:05:41.084Z,3.08
2023-06-25T18:08:08.365Z,3.72
2023-06-25T18:10:35.817Z,4.40
2023-06-25T18:13:03.121Z,3.85
2023-06-25T18:15:40.119Z,3.30
2023-06-25T18:18:08.259Z,3.58
2023-06-25T18:20:35.613Z,3.58
2023-06-25T18:23:03.095Z,3.53
2023-06-25T18:25:30.409Z,3.38
2023-06-25T18:28:00.026Z,3.58
2023-06-25T18:30:27.414Z,3.63
2023-06-25T18:32:57.230Z,3.58
2023-06-25T18:35:26.891Z,3.30
2023-06-25T18:37:54.219Z,2.92
2023-06-25T18:40:21.517Z,3.47
2023-06-25T18:42:53.491Z,3.55
2023-06-25T18:45:21.151Z,3.28
2023-06-25T18:47:48.449Z,3.75
2023-06-25T18:50:18.378Z,3.70
2023-06-25T18:52:45.875Z,3.53
2023-06-25T18:55:13.381Z,3.00
2023-06-25T18:57:40.862Z,3.10
2023-06-25T19:00:10.908Z,4.40
2023-06-25T19:02:38.771Z,3.17
2023-06-25T19:05:06.983Z,3.17
2023-06-25T19:07:39.744Z,3.35
2023-06-25T19:10:14.891Z,3.30
2023-06-25T19:12:44.607Z,3.72
2023-06-25T19:15:12.077Z,4.20
2023-06-25T19:17:39.469Z,3.42
2023-06-25T19:20:07.176Z,3.45
2023-06-25T19:22:34.455Z,4.32
2023-06-25T19:25:03.914Z,2.90
2023-06-25T19:27:33.922Z,3.45
2023-06-25T19:30:01.364Z,3.30
2023-06-25T19:32:31.226Z,3.65
2023-06-25T19:35:00.057Z,3.40
2023-06-25T19:37:27.456Z,3.33
2023-06-25T19:39:59.444Z,3.70
2023-06-25T19:42:26.762Z,3.83
2023-06-25T19:44:56.280Z,3.95
2023-06-25T19:47:23.981Z,4.15
2023-06-25T19:49:51.499Z,3.58
2023-06-25T19:52:19.074Z,4.03
2023-06-25T19:54:48.606Z,3.75
2023-06-25T19:57:16.081Z,4.40
2023-06-25T19:59:43.378Z,3.90
2023-06-25T20:02:10.824Z,4.45
2023-06-25T20:04:39.653Z,4.30
2023-06-25T20:07:07.169Z,3.80
2023-06-25T20:09:36.936Z,3.60
2023-06-25T20:12:04.514Z,3.88
2023-06-25T20:14:31.828Z,4.30
2023-06-25T20:16:59.399Z,3.28
2023-06-25T20:19:26.704Z,4.28
2023-06-25T20:21:56.206Z,4.43
2023-06-25T20:24:25.823Z,3.85
2023-06-25T20:26:53.115Z,4.10
2023-06-25T20:29:20.446Z,4.60
2023-06-25T20:31:47.836Z,3.88
2023-06-25T20:34:15.425Z,4.70
2023-06-25T20:36:45.199Z,4.47
2023-06-25T20:39:14.995Z,4.70
2023-06-25T20:41:44.693Z,5.55
2023-06-25T20:44:16.365Z,4.53
2023-06-25T20:46:43.706Z,4.63
2023-06-25T20:49:20.093Z,4.65
2023-06-25T20:51:50.215Z,4.60
2023-06-25T20:54:19.821Z,4.35
2023-06-25T20:56:47.197Z,4.53
2023-06-25T20:59:14.582Z,5.20
2023-06-25T21:01:42.064Z,4.07
2023-06-25T21:04:11.995Z,4.30
2023-06-25T21:06:39.310Z,4.15
2023-06-25T21:09:07.150Z,4.15
2023-06-25T21:11:34.735Z,3.78
2023-06-25T21:14:06.165Z,3.90
2023-06-25T21:16:33.694Z,3.85
2023-06-25T21:19:01.037Z,3.45
2023-06-25T21:21:28.769Z,4.18
2023-06-25T21:23:56.130Z,3.92
2023-06-25T21:26:23.836Z,3.83
2023-06-25T21:28:51.339Z,3.53
2023-06-25T21:31:18.846Z,3.63
2023-06-25T21:33:46.186Z,4.03
2023-06-25T21:36:13.480Z,3.67
2023-06-25T21:38:40.821Z,3.75
2023-06-25T21:41:08.137Z,3.83
2023-06-25T21:43:35.557Z,3.97
2023-06-25T21:46:02.934Z,3.72
2023-06-25T21:48:30.353Z,4.07
2023-06-25T21:51:02.905Z,3.50
2023-06-25T21:53:30.175Z,3.70
2023-06-25T21:55:57.516Z,3.58
2023-06-25T21:58:25.072Z,4.00
2023-06-25T22:00:55.159Z,4.32
2023-06-25T22:03:22.957Z,3.80
2023-06-25T22:05:50.394Z,3.83
2023-06-25T22:08:17.715Z,3.75
2023-06-25T22:10:45.451Z,3.17
2023-06-25T22:13:18.363Z,3.60
2023-06-25T22:15:46.916Z,3.55
2023-06-25T22:18:16.815Z,3.97
2023-06-25T22:20:44.245Z,4.38
2023-06-25T22:23:11.731Z,3.63
2023-06-25T22:25:39.079Z,3.92
2023-06-25T22:28:08.888Z,3.90
2023-06-25T22:30:38.607Z,3.47
2023-06-25T22:33:08.570Z,4.00
2023-06-25T22:35:36.324Z,3.60
2023-06-25T22:38:03.874Z,4.35
2023-06-25T22:40:31.498Z,4.80
2023-06-25T22:42:59.334Z,4.82
2023-06-25T22:45:26.927Z,4.82
2023-06-25T22:47:56.363Z,5.13
2023-06-25T22:50:23.859Z,4.75
2023-06-25T22:52:51.183Z,5.10
2023-06-25T22:55:20.739Z,4.88
2023-06-25T22:57:48.262Z,4.72
2023-06-25T23:00:16.116Z,4.85
2023-06-25T23:02:43.696Z,5.07
2023-06-25T23:05:12.709Z,4.90
2023-06-25T23:07:42.491Z,6.05
2023-06-25T23:10:10.956Z,5.70
2023-06-25T23:12:38.316Z,5.45
2023-06-25T23:15:06.360Z,5.15
2023-06-25T23:17:36.493Z,4.95
2023-06-25T23:20:06.720Z,5.70
2023-06-25T23:22:34.752Z,5.50
2023-06-25T23:25:09.806Z,5.63
2023-06-25T23:27:43.031Z,5.47
2023-06-25T23:30:12.870Z,5.38
2023-06-25T23:32:41.333Z,5.57
2023-06-25T23:35:12.037Z,5.30
2023-06-25T23:37:45.395Z,5.50
2023-06-25T23:40:13.265Z,4.70
2023-06-25T23:42:40.762Z,5.70
2023-06-25T23:45:13.370Z,5.80
2023-06-25T23:47:42.834Z,5.90
2023-06-25T23:50:10.175Z,5.70
2023-06-25T23:52:37.567Z,6.10
2023-06-25T23:55:08.585Z,6.05
2023-06-25T23:57:35.941Z,6.00
